Henderson, Michigan
Current Conditions -  °F | °C
As of 2:54 PM on Saturday 25 Oct 2014 (Local Time) from KRNP Reporting Station
Clear Clear  
Wind Chill: 66°   Ceiling: Unl
Heat Index: 66°   Visibility: 10mi
Dew Point: 41°   Wind: 21mph
Humidity: 39%   Direction: 280°W
Pressure: 29.74"   Gusts: 28mph
Location:  43.09°N, 84.2°W
Report Text: KRNP 251854Z AUTO 28018G24KT 10SM CLR 19/05 A2974 RMK AO2 T01910049
Loading
Personal Weather Stations






























Interactive Weather Map
Tropical Storm Tracking
New forecast layout! Learn more

10-Day Weather Forecast

Advertisements
Track Severe Weather on mobile